Messwerte Palacios

Temperatur

Temperatur
°C
1594303200 9.00 9.00 31
1594306800 10.00 10.00 31
1594310400 11.00 11.00 32
1594314000 12.00 12.00 32
1594317600 13.00 13.00 33
1594321200 14.00 14.00 33
1594324800 15.00 15.00 33
1594328400 16.00 16.00 32
1594332000 17.00 17.00 32
1594335600 18.00 18.00 32
1594339200 19.00 19.00 31
1594342800 20.00 20.00 30
1594346400 21.00 21.00 29
1594350000 22.00 22.00 29
1594353600 23.00 23.00 29
1594357200 0.00 0.00 29
1594360800 1.00 1.00
1594364400 2.00 2.00 29
1594368000 3.00 3.00 29
1594371600 4.00 4.00
1594375200 5.00 5.00 29
1594378800 6.00 6.00 29
1594382400 7.00 7.00
1594386000 8.00 8.00 30

Aktuellste Messwerte

Wettercharakter
Wetter: wechselnd bewölkt
Temperatur
31 °C
Feuchtigkeit
75 %
Wind
15 km/hWindrichtung: Süd
Luftdruck
1017 hPa
Messzeit: 10. Juli 2020, 9.00Datenquelle: METAR

Weitere Messstationen in der Nähe

Messstation Temperatur Entfernung
Port Lavaca 32 °C 43 km
Bay City 31 °C 46 km
Wharton 30 °C 59 km
Victoria 29 °C 67 km
Angleton / Lake Jackson 30 °C 88 km
Rockport 31 °C 106 km
Houston 29 °C 114 km

Wind

Windrichtung Böen Mittelwind
° km/h km/h
1594303200 9.00 8.00 - 9.00 170° 20
1594306800 10.00 9.00 - 10.00 180° 35 20
1594310400 11.00 10.00 - 11.00 180° 30
1594314000 12.00 11.00 - 12.00 180° 35 20
1594317600 13.00 12.00 - 13.00 180° 40 25
1594321200 14.00 13.00 - 14.00 180° 45 25
1594324800 15.00 14.00 - 15.00 180° 35 25
1594328400 16.00 15.00 - 16.00 170° 25
1594332000 17.00 16.00 - 17.00 190° 20
1594335600 18.00 17.00 - 18.00 180° 20
1594339200 19.00 18.00 - 19.00 160° 20
1594342800 20.00 19.00 - 20.00 160° 20
1594346400 21.00 20.00 - 21.00
1594350000 22.00 21.00 - 22.00 150° 20
1594353600 23.00 22.00 - 23.00 160° 20
1594357200 0.00 23.00 - 0.00 160° 15
1594360800 1.00 0.00 - 1.00
1594364400 2.00 1.00 - 2.00 170° 20
1594368000 3.00 2.00 - 3.00 170° 30 20
1594371600 4.00 3.00 - 4.00
1594375200 5.00 4.00 - 5.00 180° 25
1594378800 6.00 5.00 - 6.00 180° 20
1594382400 7.00 6.00 - 7.00
1594386000 8.00 7.00 - 8.00 170° 30 20

Ihre Wetterstation

Fehlt Ihre Wetterstation auf unserem Portal?

Schreiben Sie an network@meteonews.ch

Klima

Wann ist es am wärmsten? Wann regnet es am wenigsten? Unsere Klimadaten geben Auskunft.